sensor_id;sensor_type;location;lat;lon;timestamp;temperature;humidity
3684;DHT22;1858;48.716;9.648;2022-08-01T00:01:26;18.60;1.00
3684;DHT22;1858;48.716;9.648;2022-08-01T00:03:54;18.60;1.00
3684;DHT22;1858;48.716;9.648;2022-08-01T00:06:21;18.50;1.00
3684;DHT22;1858;48.716;9.648;2022-08-01T00:08:49;18.40;1.00
3684;DHT22;1858;48.716;9.648;2022-08-01T00:11:17;18.30;1.00
3684;DHT22;1858;48.716;9.648;2022-08-01T00:13:44;18.30;1.00
3684;DHT22;1858;48.716;9.648;2022-08-01T00:16:12;18.40;1.00
3684;DHT22;1858;48.716;9.648;2022-08-01T00:18:39;18.40;1.00
3684;DHT22;1858;48.716;9.648;2022-08-01T00:21:07;18.40;99.90
3684;DHT22;1858;48.716;9.648;2022-08-01T00:23:35;18.30;99.90
3684;DHT22;1858;48.716;9.648;2022-08-01T00:26:02;18.30;99.90
3684;DHT22;1858;48.716;9.648;2022-08-01T00:28:30;18.30;99.90
3684;DHT22;1858;48.716;9.648;2022-08-01T00:30:57;18.30;99.90
3684;DHT22;1858;48.716;9.648;2022-08-01T00:33:25;18.20;99.90
3684;DHT22;1858;48.716;9.648;2022-08-01T00:35:52;18.20;99.90
3684;DHT22;1858;48.716;9.648;2022-08-01T00:38:20;18.20;99.90
3684;DHT22;1858;48.716;9.648;2022-08-01T00:40:48;18.20;99.90
3684;DHT22;1858;48.716;9.648;2022-08-01T00:43:16;18.00;1.00
3684;DHT22;1858;48.716;9.648;2022-08-01T00:46:04;18.10;1.00
3684;DHT22;1858;48.716;9.648;2022-08-01T00:48:31;18.10;1.00
3684;DHT22;1858;48.716;9.648;2022-08-01T00:50:59;18.00;1.00
3684;DHT22;1858;48.716;9.648;2022-08-01T00:53:27;17.90;1.00
3684;DHT22;1858;48.716;9.648;2022-08-01T00:55:54;17.90;1.00
3684;DHT22;1858;48.716;9.648;2022-08-01T00:58:22;17.90;1.00
3684;DHT22;1858;48.716;9.648;2022-08-01T01:00:50;17.80;1.00
3684;DHT22;1858;48.716;9.648;2022-08-01T01:03:18;17.70;1.00
3684;DHT22;1858;48.716;9.648;2022-08-01T01:05:48;17.80;1.00
3684;DHT22;1858;48.716;9.648;2022-08-01T01:08:17;17.70;1.00
3684;DHT22;1858;48.716;9.648;2022-08-01T01:10:48;17.60;1.00
3684;DHT22;1858;48.716;9.648;2022-08-01T01:13:33;17.70;1.00
3684;DHT22;1858;48.716;9.648;2022-08-01T01:16:02;17.70;1.00
3684;DHT22;1858;48.716;9.648;2022-08-01T01:18:30;17.60;1.00
3684;DHT22;1858;48.716;9.648;2022-08-01T01:26:23;17.70;1.00
3684;DHT22;1858;48.716;9.648;2022-08-01T01:28:55;17.60;1.00
3684;DHT22;1858;48.716;9.648;2022-08-01T01:31:53;17.60;1.00
3684;DHT22;1858;48.716;9.648;2022-08-01T01:34:11;17.50;1.00
3684;DHT22;1858;48.716;9.648;2022-08-01T01:36:39;17.50;1.00
3684;DHT22;1858;48.716;9.648;2022-08-01T01:39:07;17.60;1.00
3684;DHT22;1858;48.716;9.648;2022-08-01T01:41:35;17.50;1.00
3684;DHT22;1858;48.716;9.648;2022-08-01T01:44:04;17.40;1.00
3684;DHT22;1858;48.716;9.648;2022-08-01T01:46:32;17.40;1.00
3684;DHT22;1858;48.716;9.648;2022-08-01T01:49:00;17.40;1.00
3684;DHT22;1858;48.716;9.648;2022-08-01T01:51:28;17.40;1.00
3684;DHT22;1858;48.716;9.648;2022-08-01T01:53:57;17.40;1.00
3684;DHT22;1858;48.716;9.648;2022-08-01T01:56:25;17.40;1.00
3684;DHT22;1858;48.716;9.648;2022-08-01T01:58:55;17.30;1.00
3684;DHT22;1858;48.716;9.648;2022-08-01T02:01:24;17.30;1.00
3684;DHT22;1858;48.716;9.648;2022-08-01T02:03:53;17.20;1.00
3684;DHT22;1858;48.716;9.648;2022-08-01T02:06:22;17.20;1.00
3684;DHT22;1858;48.716;9.648;2022-08-01T02:08:51;17.10;1.00
3684;DHT22;1858;48.716;9.648;2022-08-01T02:11:20;17.10;1.00
3684;DHT22;1858;48.716;9.648;2022-08-01T02:13:52;17.10;1.00
3684;DHT22;1858;48.716;9.648;2022-08-01T02:16:19;17.00;1.00
3684;DHT22;1858;48.716;9.648;2022-08-01T02:18:48;17.10;42.70
3684;DHT22;1858;48.716;9.648;2022-08-01T02:21:17;17.00;40.50
3684;DHT22;1858;48.716;9.648;2022-08-01T02:23:45;17.00;53.80
3684;DHT22;1858;48.716;9.648;2022-08-01T02:26:13;17.00;62.00
3684;DHT22;1858;48.716;9.648;2022-08-01T02:28:47;17.10;27.70
3684;DHT22;1858;48.716;9.648;2022-08-01T02:31:17;17.10;19.50
3684;DHT22;1858;48.716;9.648;2022-08-01T02:33:46;17.10;32.50
3684;DHT22;1858;48.716;9.648;2022-08-01T02:36:14;17.10;19.60
3684;DHT22;1858;48.716;9.648;2022-08-01T02:38:44;17.10;9.30
3684;DHT22;1858;48.716;9.648;2022-08-01T02:41:16;17.10;25.80
3684;DHT22;1858;48.716;9.648;2022-08-01T02:43:43;17.10;47.80
3684;DHT22;1858;48.716;9.648;2022-08-01T02:46:12;17.10;79.20
3684;DHT22;1858;48.716;9.648;2022-08-01T02:48:40;17.10;99.90
3684;DHT22;1858;48.716;9.648;2022-08-01T02:51:09;17.10;99.90
3684;DHT22;1858;48.716;9.648;2022-08-01T02:53:38;17.10;99.90
3684;DHT22;1858;48.716;9.648;2022-08-01T02:56:08;17.10;99.90
3684;DHT22;1858;48.716;9.648;2022-08-01T02:58:36;17.00;90.20
3684;DHT22;1858;48.716;9.648;2022-08-01T03:01:04;17.00;86.10
3684;DHT22;1858;48.716;9.648;2022-08-01T03:03:32;17.00;99.90
3684;DHT22;1858;48.716;9.648;2022-08-01T03:06:01;16.90;75.50
3684;DHT22;1858;48.716;9.648;2022-08-01T03:08:29;16.80;99.90
3684;DHT22;1858;48.716;9.648;2022-08-01T03:10:57;16.80;99.90
3684;DHT22;1858;48.716;9.648;2022-08-01T03:13:27;16.80;99.90
3684;DHT22;1858;48.716;9.648;2022-08-01T03:15:55;16.80;99.90
3684;DHT22;1858;48.716;9.648;2022-08-01T03:18:24;16.70;99.90
3684;DHT22;1858;48.716;9.648;2022-08-01T03:20:53;16.70;99.90
3684;DHT22;1858;48.716;9.648;2022-08-01T03:23:41;16.70;99.90
3684;DHT22;1858;48.716;9.648;2022-08-01T03:26:10;16.70;99.90
3684;DHT22;1858;48.716;9.648;2022-08-01T03:28:38;16.70;99.90
3684;DHT22;1858;48.716;9.648;2022-08-01T03:31:06;16.70;99.90
3684;DHT22;1858;48.716;9.648;2022-08-01T03:33:33;16.60;99.90
3684;DHT22;1858;48.716;9.648;2022-08-01T03:36:01;16.60;99.90
3684;DHT22;1858;48.716;9.648;2022-08-01T03:38:29;16.60;99.90
3684;DHT22;1858;48.716;9.648;2022-08-01T03:43:48;16.50;99.90
3684;DHT22;1858;48.716;9.648;2022-08-01T03:46:17;16.50;99.90
3684;DHT22;1858;48.716;9.648;2022-08-01T03:48:47;16.50;99.90
3684;DHT22;1858;48.716;9.648;2022-08-01T03:51:15;16.50;99.90
3684;DHT22;1858;48.716;9.648;2022-08-01T03:53:42;16.40;99.90
3684;DHT22;1858;48.716;9.648;2022-08-01T03:56:11;16.40;99.90
3684;DHT22;1858;48.716;9.648;2022-08-01T03:58:39;16.40;99.90
3684;DHT22;1858;48.716;9.648;2022-08-01T04:01:08;16.40;99.90
3684;DHT22;1858;48.716;9.648;2022-08-01T04:03:38;16.50;99.90
3684;DHT22;1858;48.716;9.648;2022-08-01T04:08:54;16.50;99.90
3684;DHT22;1858;48.716;9.648;2022-08-01T04:11:25;16.50;99.90
3684;DHT22;1858;48.716;9.648;2022-08-01T04:13:54;16.50;99.90
3684;DHT22;1858;48.716;9.648;2022-08-01T04:16:21;16.50;99.90
3684;DHT22;1858;48.716;9.648;2022-08-01T04:18:49;16.50;99.90
3684;DHT22;1858;48.716;9.648;2022-08-01T04:21:17;16.60;99.90
3684;DHT22;1858;48.716;9.648;2022-08-01T04:23:45;16.60;99.90
3684;DHT22;1858;48.716;9.648;2022-08-01T04:26:14;16.60;99.90
3684;DHT22;1858;48.716;9.648;2022-08-01T04:28:42;16.60;99.90
3684;DHT22;1858;48.716;9.648;2022-08-01T04:31:10;16.60;99.90
3684;DHT22;1858;48.716;9.648;2022-08-01T04:33:39;16.60;99.90
3684;DHT22;1858;48.716;9.648;2022-08-01T04:36:08;16.70;99.90
3684;DHT22;1858;48.716;9.648;2022-08-01T04:38:37;16.80;99.90
3684;DHT22;1858;48.716;9.648;2022-08-01T04:41:06;16.90;99.90
3684;DHT22;1858;48.716;9.648;2022-08-01T04:43:34;17.00;99.90
3684;DHT22;1858;48.716;9.648;2022-08-01T04:46:02;17.10;99.90
3684;DHT22;1858;48.716;9.648;2022-08-01T04:48:31;17.20;99.90
3684;DHT22;1858;48.716;9.648;2022-08-01T04:51:00;17.40;99.90
3684;DHT22;1858;48.716;9.648;2022-08-01T04:53:27;17.60;1.00
3684;DHT22;1858;48.716;9.648;2022-08-01T04:55:55;17.80;1.00
3684;DHT22;1858;48.716;9.648;2022-08-01T04:58:23;17.80;1.00
3684;DHT22;1858;48.716;9.648;2022-08-01T05:00:50;18.00;1.00
3684;DHT22;1858;48.716;9.648;2022-08-01T05:03:18;18.10;1.00
3684;DHT22;1858;48.716;9.648;2022-08-01T05:05:46;18.20;1.00
3684;DHT22;1858;48.716;9.648;2022-08-01T05:08:13;18.30;1.00
3684;DHT22;1858;48.716;9.648;2022-08-01T05:10:42;18.40;1.00
3684;DHT22;1858;48.716;9.648;2022-08-01T05:13:10;18.60;1.00
3684;DHT22;1858;48.716;9.648;2022-08-01T05:15:38;18.70;1.00
3684;DHT22;1858;48.716;9.648;2022-08-01T05:18:05;19.00;1.00
3684;DHT22;1858;48.716;9.648;2022-08-01T05:20:33;19.20;1.00
3684;DHT22;1858;48.716;9.648;2022-08-01T05:23:00;19.50;1.00
3684;DHT22;1858;48.716;9.648;2022-08-01T05:25:28;19.70;99.90
3684;DHT22;1858;48.716;9.648;2022-08-01T05:27:56;20.10;99.90
3684;DHT22;1858;48.716;9.648;2022-08-01T05:30:23;20.40;99.90
3684;DHT22;1858;48.716;9.648;2022-08-01T05:32:51;20.60;99.90
3684;DHT22;1858;48.716;9.648;2022-08-01T05:35:19;20.70;99.90
3684;DHT22;1858;48.716;9.648;2022-08-01T05:37:46;20.80;99.90
3684;DHT22;1858;48.716;9.648;2022-08-01T05:40:14;20.90;99.90
3684;DHT22;1858;48.716;9.648;2022-08-01T05:42:41;20.90;99.90
3684;DHT22;1858;48.716;9.648;2022-08-01T05:45:09;20.90;99.90
3684;DHT22;1858;48.716;9.648;2022-08-01T05:47:37;21.00;99.90
3684;DHT22;1858;48.716;9.648;2022-08-01T05:50:05;21.20;75.00
3684;DHT22;1858;48.716;9.648;2022-08-01T05:52:32;21.20;40.70
3684;DHT22;1858;48.716;9.648;2022-08-01T05:55:00;21.30;62.70
3684;DHT22;1858;48.716;9.648;2022-08-01T05:57:27;21.20;98.90
3684;DHT22;1858;48.716;9.648;2022-08-01T05:59:55;21.20;99.90
3684;DHT22;1858;48.716;9.648;2022-08-01T06:02:23;21.30;99.90
3684;DHT22;1858;48.716;9.648;2022-08-01T06:04:50;21.40;56.70
3684;DHT22;1858;48.716;9.648;2022-08-01T06:07:18;21.50;51.50
3684;DHT22;1858;48.716;9.648;2022-08-01T06:09:46;21.60;48.20
3684;DHT22;1858;48.716;9.648;2022-08-01T06:12:13;21.70;37.80
3684;DHT22;1858;48.716;9.648;2022-08-01T06:14:41;21.80;24.10
3684;DHT22;1858;48.716;9.648;2022-08-01T06:17:08;21.90;1.00
3684;DHT22;1858;48.716;9.648;2022-08-01T06:19:36;22.00;1.00
3684;DHT22;1858;48.716;9.648;2022-08-01T06:22:04;22.00;8.40
3684;DHT22;1858;48.716;9.648;2022-08-01T06:24:31;22.20;22.80
3684;DHT22;1858;48.716;9.648;2022-08-01T06:26:59;22.30;16.60
3684;DHT22;1858;48.716;9.648;2022-08-01T06:29:27;22.40;8.10
3684;DHT22;1858;48.716;9.648;2022-08-01T06:31:56;22.60;4.00
3684;DHT22;1858;48.716;9.648;2022-08-01T06:34:23;22.80;1.00
3684;DHT22;1858;48.716;9.648;2022-08-01T06:36:51;23.10;1.00
3684;DHT22;1858;48.716;9.648;2022-08-01T06:39:19;23.40;1.00
3684;DHT22;1858;48.716;9.648;2022-08-01T06:41:46;23.60;1.00
3684;DHT22;1858;48.716;9.648;2022-08-01T06:44:14;24.10;1.00
3684;DHT22;1858;48.716;9.648;2022-08-01T06:46:42;25.40;1.00
3684;DHT22;1858;48.716;9.648;2022-08-01T06:49:10;27.10;1.00
3684;DHT22;1858;48.716;9.648;2022-08-01T06:51:37;29.20;1.00
3684;DHT22;1858;48.716;9.648;2022-08-01T06:54:05;31.00;1.00
3684;DHT22;1858;48.716;9.648;2022-08-01T06:56:32;32.50;99.90
3684;DHT22;1858;48.716;9.648;2022-08-01T06:59:01;33.90;99.90
3684;DHT22;1858;48.716;9.648;2022-08-01T07:01:29;34.70;99.90
3684;DHT22;1858;48.716;9.648;2022-08-01T07:03:57;35.70;99.90
3684;DHT22;1858;48.716;9.648;2022-08-01T07:06:27;36.50;99.90
3684;DHT22;1858;48.716;9.648;2022-08-01T07:08:55;37.20;99.90
3684;DHT22;1858;48.716;9.648;2022-08-01T07:11:23;37.70;99.90
3684;DHT22;1858;48.716;9.648;2022-08-01T07:13:51;38.10;99.90
3684;DHT22;1858;48.716;9.648;2022-08-01T07:16:18;38.60;99.90
3684;DHT22;1858;48.716;9.648;2022-08-01T07:18:46;39.20;99.90
3684;DHT22;1858;48.716;9.648;2022-08-01T07:21:13;39.70;99.90
3684;DHT22;1858;48.716;9.648;2022-08-01T07:23:41;40.30;99.90
3684;DHT22;1858;48.716;9.648;2022-08-01T07:26:09;40.50;99.90
3684;DHT22;1858;48.716;9.648;2022-08-01T07:28:36;40.70;99.90
3684;DHT22;1858;48.716;9.648;2022-08-01T07:31:04;41.20;99.90
3684;DHT22;1858;48.716;9.648;2022-08-01T07:33:32;41.40;99.90
3684;DHT22;1858;48.716;9.648;2022-08-01T07:35:59;41.70;99.90
3684;DHT22;1858;48.716;9.648;2022-08-01T07:38:27;41.80;99.90
3684;DHT22;1858;48.716;9.648;2022-08-01T07:40:54;42.40;99.90
3684;DHT22;1858;48.716;9.648;2022-08-01T07:43:23;42.80;99.90
3684;DHT22;1858;48.716;9.648;2022-08-01T07:45:51;43.00;99.90
3684;DHT22;1858;48.716;9.648;2022-08-01T07:48:18;42.80;99.90
3684;DHT22;1858;48.716;9.648;2022-08-01T07:50:47;42.70;99.90
3684;DHT22;1858;48.716;9.648;2022-08-01T07:53:15;42.50;99.90
3684;DHT22;1858;48.716;9.648;2022-08-01T07:55:43;42.50;99.90
3684;DHT22;1858;48.716;9.648;2022-08-01T07:58:10;42.60;99.90
3684;DHT22;1858;48.716;9.648;2022-08-01T08:00:38;43.10;99.90
3684;DHT22;1858;48.716;9.648;2022-08-01T08:03:06;43.30;99.90
3684;DHT22;1858;48.716;9.648;2022-08-01T08:05:34;43.60;99.90
3684;DHT22;1858;48.716;9.648;2022-08-01T08:08:08;43.80;99.90
3684;DHT22;1858;48.716;9.648;2022-08-01T08:10:31;43.80;99.90
3684;DHT22;1858;48.716;9.648;2022-08-01T08:12:58;44.10;99.90
3684;DHT22;1858;48.716;9.648;2022-08-01T08:15:27;44.50;99.90
3684;DHT22;1858;48.716;9.648;2022-08-01T08:18:15;44.30;99.90
3684;DHT22;1858;48.716;9.648;2022-08-01T08:20:43;44.30;99.90
3684;DHT22;1858;48.716;9.648;2022-08-01T08:23:12;43.80;99.90
3684;DHT22;1858;48.716;9.648;2022-08-01T08:25:57;43.80;99.90
3684;DHT22;1858;48.716;9.648;2022-08-01T08:28:25;42.00;99.90
3684;DHT22;1858;48.716;9.648;2022-08-01T08:30:53;41.70;99.90
3684;DHT22;1858;48.716;9.648;2022-08-01T08:33:21;42.10;99.90
3684;DHT22;1858;48.716;9.648;2022-08-01T08:35:49;41.60;99.90
3684;DHT22;1858;48.716;9.648;2022-08-01T08:38:17;41.30;99.90
3684;DHT22;1858;48.716;9.648;2022-08-01T08:40:44;41.00;99.90
3684;DHT22;1858;48.716;9.648;2022-08-01T08:43:12;41.70;99.90
3684;DHT22;1858;48.716;9.648;2022-08-01T08:45:40;42.40;99.90
3684;DHT22;1858;48.716;9.648;2022-08-01T08:48:08;43.10;99.90
3684;DHT22;1858;48.716;9.648;2022-08-01T08:50:35;43.20;99.90
3684;DHT22;1858;48.716;9.648;2022-08-01T08:53:03;43.70;99.90
3684;DHT22;1858;48.716;9.648;2022-08-01T08:55:31;44.50;99.90
3684;DHT22;1858;48.716;9.648;2022-08-01T08:57:59;45.30;99.90
3684;DHT22;1858;48.716;9.648;2022-08-01T09:00:28;44.00;99.90
3684;DHT22;1858;48.716;9.648;2022-08-01T09:02:56;42.90;99.90
3684;DHT22;1858;48.716;9.648;2022-08-01T09:05:23;42.70;99.90
3684;DHT22;1858;48.716;9.648;2022-08-01T09:07:54;43.00;99.90
3684;DHT22;1858;48.716;9.648;2022-08-01T09:10:21;43.60;99.90
3684;DHT22;1858;48.716;9.648;2022-08-01T09:13:04;44.00;99.90
3684;DHT22;1858;48.716;9.648;2022-08-01T09:15:51;44.40;99.90
3684;DHT22;1858;48.716;9.648;2022-08-01T09:18:30;45.40;99.90
3684;DHT22;1858;48.716;9.648;2022-08-01T09:21:15;45.50;99.90
3684;DHT22;1858;48.716;9.648;2022-08-01T09:26:35;45.00;99.90
3684;DHT22;1858;48.716;9.648;2022-08-01T09:29:04;45.60;99.90
3684;DHT22;1858;48.716;9.648;2022-08-01T09:31:39;46.00;99.90
3684;DHT22;1858;48.716;9.648;2022-08-01T09:34:07;45.90;99.90
3684;DHT22;1858;48.716;9.648;2022-08-01T09:36:43;46.20;99.90
3684;DHT22;1858;48.716;9.648;2022-08-01T09:39:13;46.10;99.90
3684;DHT22;1858;48.716;9.648;2022-08-01T09:41:40;44.60;99.90
3684;DHT22;1858;48.716;9.648;2022-08-01T09:44:08;44.30;99.90
3684;DHT22;1858;48.716;9.648;2022-08-01T09:46:36;43.70;99.90
3684;DHT22;1858;48.716;9.648;2022-08-01T09:49:05;43.80;99.90
3684;DHT22;1858;48.716;9.648;2022-08-01T09:51:34;44.00;99.90
3684;DHT22;1858;48.716;9.648;2022-08-01T09:54:03;44.40;99.90
3684;DHT22;1858;48.716;9.648;2022-08-01T09:56:38;45.30;99.90
3684;DHT22;1858;48.716;9.648;2022-08-01T09:59:37;45.60;99.90
3684;DHT22;1858;48.716;9.648;2022-08-01T10:02:04;44.50;99.90
3684;DHT22;1858;48.716;9.648;2022-08-01T10:04:32;42.80;99.90
3684;DHT22;1858;48.716;9.648;2022-08-01T10:07:05;41.20;99.90
3684;DHT22;1858;48.716;9.648;2022-08-01T10:09:34;40.40;99.90
3684;DHT22;1858;48.716;9.648;2022-08-01T10:12:03;40.90;99.90
3684;DHT22;1858;48.716;9.648;2022-08-01T10:14:31;40.90;99.90
3684;DHT22;1858;48.716;9.648;2022-08-01T10:16:59;39.50;99.90
3684;DHT22;1858;48.716;9.648;2022-08-01T10:19:28;38.60;99.90
3684;DHT22;1858;48.716;9.648;2022-08-01T10:21:56;37.80;99.90
3684;DHT22;1858;48.716;9.648;2022-08-01T10:24:26;36.80;99.90
3684;DHT22;1858;48.716;9.648;2022-08-01T10:26:58;35.60;99.90
3684;DHT22;1858;48.716;9.648;2022-08-01T10:29:28;34.90;99.90
3684;DHT22;1858;48.716;9.648;2022-08-01T10:31:57;34.30;99.90
3684;DHT22;1858;48.716;9.648;2022-08-01T10:34:25;34.10;99.90
3684;DHT22;1858;48.716;9.648;2022-08-01T10:36:53;34.60;99.90
3684;DHT22;1858;48.716;9.648;2022-08-01T10:39:21;35.90;99.90
3684;DHT22;1858;48.716;9.648;2022-08-01T10:41:49;37.90;99.90
3684;DHT22;1858;48.716;9.648;2022-08-01T10:44:17;40.00;99.90
3684;DHT22;1858;48.716;9.648;2022-08-01T10:46:47;41.70;99.90
3684;DHT22;1858;48.716;9.648;2022-08-01T10:49:16;43.20;99.90
3684;DHT22;1858;48.716;9.648;2022-08-01T10:51:45;44.30;99.90
3684;DHT22;1858;48.716;9.648;2022-08-01T10:54:13;45.00;99.90
3684;DHT22;1858;48.716;9.648;2022-08-01T10:56:45;46.10;99.90
3684;DHT22;1858;48.716;9.648;2022-08-01T10:59:27;46.20;99.90
3684;DHT22;1858;48.716;9.648;2022-08-01T11:02:00;45.30;99.90
3684;DHT22;1858;48.716;9.648;2022-08-01T11:07:07;41.20;99.90
3684;DHT22;1858;48.716;9.648;2022-08-01T11:12:41;38.30;99.90
3684;DHT22;1858;48.716;9.648;2022-08-01T11:17:58;38.60;99.90
3684;DHT22;1858;48.716;9.648;2022-08-01T11:20:27;40.00;99.90
3684;DHT22;1858;48.716;9.648;2022-08-01T11:30:47;38.00;99.90
3684;DHT22;1858;48.716;9.648;2022-08-01T11:33:16;37.80;99.90
3684;DHT22;1858;48.716;9.648;2022-08-01T11:38:30;37.10;99.90
3684;DHT22;1858;48.716;9.648;2022-08-01T11:41:16;36.70;99.90
3684;DHT22;1858;48.716;9.648;2022-08-01T11:49:27;35.80;99.90
3684;DHT22;1858;48.716;9.648;2022-08-01T11:52:04;35.50;99.90
3684;DHT22;1858;48.716;9.648;2022-08-01T11:54:50;34.90;99.90
3684;DHT22;1858;48.716;9.648;2022-08-01T11:57:22;34.30;99.90
3684;DHT22;1858;48.716;9.648;2022-08-01T11:59:55;34.00;99.90
3684;DHT22;1858;48.716;9.648;2022-08-01T12:02:28;33.60;99.90
3684;DHT22;1858;48.716;9.648;2022-08-01T12:04:59;33.60;99.90
3684;DHT22;1858;48.716;9.648;2022-08-01T12:07:30;33.40;99.90
3684;DHT22;1858;48.716;9.648;2022-08-01T12:12:29;33.40;99.90
3684;DHT22;1858;48.716;9.648;2022-08-01T12:14:58;33.40;99.90
3684;DHT22;1858;48.716;9.648;2022-08-01T12:19:58;33.50;99.90
3684;DHT22;1858;48.716;9.648;2022-08-01T12:22:29;33.60;99.90
3684;DHT22;1858;48.716;9.648;2022-08-01T12:25:05;33.40;99.90
3684;DHT22;1858;48.716;9.648;2022-08-01T12:27:53;33.40;99.90
3684;DHT22;1858;48.716;9.648;2022-08-01T12:30:21;33.20;99.90
3684;DHT22;1858;48.716;9.648;2022-08-01T12:36:02;32.70;99.90
3684;DHT22;1858;48.716;9.648;2022-08-01T12:38:35;32.60;99.90
3684;DHT22;1858;48.716;9.648;2022-08-01T12:41:03;32.40;99.90
3684;DHT22;1858;48.716;9.648;2022-08-01T12:43:30;32.40;99.90
3684;DHT22;1858;48.716;9.648;2022-08-01T12:46:00;32.30;99.90
3684;DHT22;1858;48.716;9.648;2022-08-01T12:48:29;32.20;99.90
3684;DHT22;1858;48.716;9.648;2022-08-01T12:51:02;32.10;99.90
3684;DHT22;1858;48.716;9.648;2022-08-01T12:53:35;32.10;99.90
3684;DHT22;1858;48.716;9.648;2022-08-01T12:56:04;32.00;99.90
3684;DHT22;1858;48.716;9.648;2022-08-01T12:58:33;32.00;99.90
3684;DHT22;1858;48.716;9.648;2022-08-01T13:01:24;32.10;99.90
3684;DHT22;1858;48.716;9.648;2022-08-01T13:04:02;32.10;99.90
3684;DHT22;1858;48.716;9.648;2022-08-01T13:06:32;32.00;99.90
3684;DHT22;1858;48.716;9.648;2022-08-01T13:09:10;32.00;99.90
3684;DHT22;1858;48.716;9.648;2022-08-01T13:11:40;32.00;99.90
3684;DHT22;1858;48.716;9.648;2022-08-01T13:14:08;32.20;99.90
3684;DHT22;1858;48.716;9.648;2022-08-01T13:16:56;32.30;99.90
3684;DHT22;1858;48.716;9.648;2022-08-01T13:19:45;32.50;99.90
3684;DHT22;1858;48.716;9.648;2022-08-01T13:22:12;32.70;99.90
3684;DHT22;1858;48.716;9.648;2022-08-01T13:24:40;33.00;99.90
3684;DHT22;1858;48.716;9.648;2022-08-01T13:27:08;33.20;99.90
3684;DHT22;1858;48.716;9.648;2022-08-01T13:30:09;33.50;99.90
3684;DHT22;1858;48.716;9.648;2022-08-01T13:35:13;33.30;99.90
3684;DHT22;1858;48.716;9.648;2022-08-01T13:37:41;33.20;99.90
3684;DHT22;1858;48.716;9.648;2022-08-01T13:42:57;33.10;99.90
3684;DHT22;1858;48.716;9.648;2022-08-01T13:45:25;33.10;99.90
3684;DHT22;1858;48.716;9.648;2022-08-01T13:47:53;33.00;99.90
3684;DHT22;1858;48.716;9.648;2022-08-01T13:50:22;32.90;99.90
3684;DHT22;1858;48.716;9.648;2022-08-01T13:52:55;32.90;99.90
3684;DHT22;1858;48.716;9.648;2022-08-01T13:58:10;33.10;99.90
3684;DHT22;1858;48.716;9.648;2022-08-01T14:00:38;33.10;99.90
3684;DHT22;1858;48.716;9.648;2022-08-01T14:03:06;32.80;99.90
3684;DHT22;1858;48.716;9.648;2022-08-01T14:05:35;32.60;99.90
3684;DHT22;1858;48.716;9.648;2022-08-01T14:08:03;32.20;99.90
3684;DHT22;1858;48.716;9.648;2022-08-01T14:10:31;32.00;99.90
3684;DHT22;1858;48.716;9.648;2022-08-01T14:12:59;31.90;99.90
3684;DHT22;1858;48.716;9.648;2022-08-01T14:15:27;32.00;99.90
3684;DHT22;1858;48.716;9.648;2022-08-01T14:17:55;32.10;99.90
3684;DHT22;1858;48.716;9.648;2022-08-01T14:20:23;32.10;99.90
3684;DHT22;1858;48.716;9.648;2022-08-01T14:22:51;31.80;99.90
3684;DHT22;1858;48.716;9.648;2022-08-01T14:25:19;31.70;99.90
3684;DHT22;1858;48.716;9.648;2022-08-01T14:27:47;31.50;99.90
3684;DHT22;1858;48.716;9.648;2022-08-01T14:30:14;31.50;99.90
3684;DHT22;1858;48.716;9.648;2022-08-01T14:32:42;31.50;99.90
3684;DHT22;1858;48.716;9.648;2022-08-01T14:35:11;31.40;99.90
3684;DHT22;1858;48.716;9.648;2022-08-01T14:37:39;31.50;99.90
3684;DHT22;1858;48.716;9.648;2022-08-01T14:40:08;31.50;99.90
3684;DHT22;1858;48.716;9.648;2022-08-01T14:42:38;31.30;99.90
3684;DHT22;1858;48.716;9.648;2022-08-01T14:45:07;31.20;99.90
3684;DHT22;1858;48.716;9.648;2022-08-01T14:47:42;31.10;99.90
3684;DHT22;1858;48.716;9.648;2022-08-01T14:50:10;31.10;99.90
3684;DHT22;1858;48.716;9.648;2022-08-01T14:52:40;31.00;99.90
3684;DHT22;1858;48.716;9.648;2022-08-01T14:57:59;30.90;99.90
3684;DHT22;1858;48.716;9.648;2022-08-01T15:00:28;31.00;99.90
3684;DHT22;1858;48.716;9.648;2022-08-01T15:02:56;31.10;99.90
3684;DHT22;1858;48.716;9.648;2022-08-01T15:05:25;31.00;99.90
3684;DHT22;1858;48.716;9.648;2022-08-01T15:07:53;31.10;99.90
3684;DHT22;1858;48.716;9.648;2022-08-01T15:10:21;31.20;99.90
3684;DHT22;1858;48.716;9.648;2022-08-01T15:12:49;31.30;99.90
3684;DHT22;1858;48.716;9.648;2022-08-01T15:15:17;31.40;99.90
3684;DHT22;1858;48.716;9.648;2022-08-01T15:17:46;31.10;99.90
3684;DHT22;1858;48.716;9.648;2022-08-01T15:20:16;31.00;99.90
3684;DHT22;1858;48.716;9.648;2022-08-01T15:22:45;30.90;99.90
3684;DHT22;1858;48.716;9.648;2022-08-01T15:25:15;30.70;99.90
3684;DHT22;1858;48.716;9.648;2022-08-01T15:27:43;30.50;99.90
3684;DHT22;1858;48.716;9.648;2022-08-01T15:30:14;30.50;99.90
3684;DHT22;1858;48.716;9.648;2022-08-01T15:32:42;30.50;99.90
3684;DHT22;1858;48.716;9.648;2022-08-01T15:35:11;30.60;99.90
3684;DHT22;1858;48.716;9.648;2022-08-01T15:37:39;30.50;99.90
3684;DHT22;1858;48.716;9.648;2022-08-01T15:40:10;30.60;99.90
3684;DHT22;1858;48.716;9.648;2022-08-01T15:42:39;30.40;99.90
3684;DHT22;1858;48.716;9.648;2022-08-01T15:45:08;30.40;99.90
3684;DHT22;1858;48.716;9.648;2022-08-01T15:47:37;30.20;99.90
3684;DHT22;1858;48.716;9.648;2022-08-01T15:50:06;30.10;99.90
3684;DHT22;1858;48.716;9.648;2022-08-01T15:52:34;30.20;99.90
3684;DHT22;1858;48.716;9.648;2022-08-01T15:55:03;30.10;99.90
3684;DHT22;1858;48.716;9.648;2022-08-01T15:57:32;29.90;99.90
3684;DHT22;1858;48.716;9.648;2022-08-01T16:00:02;29.90;99.90
3684;DHT22;1858;48.716;9.648;2022-08-01T16:02:31;29.80;99.90
3684;DHT22;1858;48.716;9.648;2022-08-01T16:04:59;29.70;99.90
3684;DHT22;1858;48.716;9.648;2022-08-01T16:07:28;29.70;99.90
3684;DHT22;1858;48.716;9.648;2022-08-01T16:09:56;29.60;99.90
3684;DHT22;1858;48.716;9.648;2022-08-01T16:12:25;29.50;99.90
3684;DHT22;1858;48.716;9.648;2022-08-01T16:14:54;29.60;99.90
3684;DHT22;1858;48.716;9.648;2022-08-01T16:17:22;29.50;99.90
3684;DHT22;1858;48.716;9.648;2022-08-01T16:19:51;29.10;99.90
3684;DHT22;1858;48.716;9.648;2022-08-01T16:22:19;28.60;99.90
3684;DHT22;1858;48.716;9.648;2022-08-01T16:24:47;28.00;99.90
3684;DHT22;1858;48.716;9.648;2022-08-01T16:27:16;27.40;99.90
3684;DHT22;1858;48.716;9.648;2022-08-01T16:29:45;27.20;99.90
3684;DHT22;1858;48.716;9.648;2022-08-01T16:32:13;26.80;99.90
3684;DHT22;1858;48.716;9.648;2022-08-01T16:34:42;26.10;99.90
3684;DHT22;1858;48.716;9.648;2022-08-01T16:37:10;25.70;99.90
3684;DHT22;1858;48.716;9.648;2022-08-01T16:39:39;25.50;99.90
3684;DHT22;1858;48.716;9.648;2022-08-01T16:42:07;25.10;99.90
3684;DHT22;1858;48.716;9.648;2022-08-01T16:44:36;25.00;99.90
3684;DHT22;1858;48.716;9.648;2022-08-01T16:47:04;24.80;99.90
3684;DHT22;1858;48.716;9.648;2022-08-01T16:49:33;24.60;99.90
3684;DHT22;1858;48.716;9.648;2022-08-01T16:52:01;24.60;99.90
3684;DHT22;1858;48.716;9.648;2022-08-01T16:54:30;24.50;99.90
3684;DHT22;1858;48.716;9.648;2022-08-01T16:56:59;24.40;99.90
3684;DHT22;1858;48.716;9.648;2022-08-01T16:59:27;24.60;99.90
3684;DHT22;1858;48.716;9.648;2022-08-01T17:01:56;24.40;99.90
3684;DHT22;1858;48.716;9.648;2022-08-01T17:04:24;24.30;99.90
3684;DHT22;1858;48.716;9.648;2022-08-01T17:06:53;24.40;99.90
3684;DHT22;1858;48.716;9.648;2022-08-01T17:09:22;24.20;99.90
3684;DHT22;1858;48.716;9.648;2022-08-01T17:11:50;24.10;99.90
3684;DHT22;1858;48.716;9.648;2022-08-01T17:14:19;24.00;99.90
3684;DHT22;1858;48.716;9.648;2022-08-01T17:16:47;23.90;99.90